Time;durP1;ratioP1;P1;durP2;ratioP2;P2;SDS_P1;SDS_P2;PMS_P1;PMS_P2;Temp;Humidity;BMP_temperature;BMP_pressure;BME280_temperature;BME280_humidity;BME280_pressure;Samples;Min_cycle;Max_cycle;Signal;HPM_P1;HPM_P2
2023/03/22 00:02:20;;;;;;;72.10;48.20;;;;;;;9.39;61.16;100023.30;105975;1253;59740;-76
2023/03/22 00:04:47;;;;;;;68.90;48.20;;;;;;;9.41;61.26;100024.01;105884;1259;66209;-76
2023/03/22 00:07:14;;;;;;;74.20;49.10;;;;;;;9.43;61.24;100025.60;105929;1253;59862;-76
2023/03/22 00:09:42;;;;;;;66.80;47.70;;;;;;;9.46;61.22;100025.61;105762;1253;65503;-77
2023/03/22 00:12:10;;;;;;;68.60;47.90;;;;;;;9.48;61.38;100028.08;105735;1258;59567;-78
2023/03/22 00:14:40;;;;;;;71.20;48.10;;;;;;;9.49;61.41;100023.98;106139;1253;59650;-79
2023/03/22 00:17:07;;;;;;;71.20;49.40;;;;;;;9.50;61.41;100021.63;105854;1253;64653;-76
2023/03/22 00:19:34;;;;;;;69.70;48.40;;;;;;;9.51;61.44;100025.16;105923;1258;59797;-76
2023/03/22 00:22:02;;;;;;;73.80;49.70;;;;;;;9.53;61.39;100019.42;105748;1253;65661;-76
2023/03/22 00:24:33;;;;;;;69.60;48.90;;;;;;;9.54;61.36;100015.68;106057;1258;59508;-75
2023/03/22 00:27:01;;;;;;;73.20;50.00;;;;;;;9.55;61.24;100014.70;105972;1253;59662;-77
2023/03/22 00:29:28;;;;;;;74.40;51.70;;;;;;;9.56;61.07;100013.02;105859;1253;64414;-77
2023/03/22 00:31:55;;;;;;;75.20;51.50;;;;;;;9.56;60.87;100008.11;105842;1260;61014;-77
2023/03/22 00:34:22;;;;;;;71.90;49.70;;;;;;;9.55;60.88;100007.62;106053;1253;65549;-77
2023/03/22 00:36:50;;;;;;;68.40;48.20;;;;;;;9.54;60.83;100010.69;105949;1256;59556;-76
2023/03/22 00:39:18;;;;;;;69.60;47.90;;;;;;;9.52;60.88;100011.40;105894;1253;59531;-75
2023/03/22 00:41:46;;;;;;;64.80;47.10;;;;;;;9.48;61.01;100011.70;105928;1256;65747;-76
2023/03/22 00:44:14;;;;;;;66.10;47.20;;;;;;;9.43;61.00;100015.59;105773;1259;59386;-77
2023/03/22 00:46:41;;;;;;;66.90;46.80;;;;;;;9.39;61.05;100010.86;105795;1252;65602;-77
2023/03/22 00:49:08;;;;;;;69.50;46.40;;;;;;;9.36;61.08;100012.87;105726;1254;59623;-77
2023/03/22 00:51:35;;;;;;;66.00;46.30;;;;;;;9.31;61.08;100013.41;106074;1254;59560;-75
2023/03/22 00:54:03;;;;;;;63.50;45.60;;;;;;;9.28;61.14;100010.05;106234;1256;65847;-77
2023/03/22 00:56:32;;;;;;;66.30;45.60;;;;;;;9.25;61.19;100016.19;106366;1255;59758;-75
2023/03/22 00:59:06;;;;;;;64.20;45.10;;;;;;;9.23;61.28;100019.17;106188;1256;64466;-76
2023/03/22 01:01:38;;;;;;;63.50;44.80;;;;;;;9.21;61.27;100016.58;106043;1253;59924;-75
2023/03/22 01:04:05;;;;;;;59.80;44.10;;;;;;;9.19;61.39;100019.86;105841;1253;59600;-76
2023/03/22 01:06:32;;;;;;;62.90;43.60;;;;;;;9.19;61.33;100023.90;106053;1253;65956;-79
2023/03/22 01:09:00;;;;;;;63.30;42.40;;;;;;;9.20;61.45;100019.61;105876;1258;59619;-77
2023/03/22 01:11:28;;;;;;;57.40;41.40;;;;;;;9.22;61.43;100020.35;106049;1253;64382;-76
2023/03/22 01:13:56;;;;;;;56.80;40.70;;;;;;;9.23;61.39;100019.89;106063;1253;59706;-76
2023/03/22 01:16:24;;;;;;;55.30;39.60;;;;;;;9.23;61.40;100020.95;106144;1251;59608;-75
2023/03/22 01:18:51;;;;;;;55.80;39.20;;;;;;;9.21;61.38;100022.34;106357;1253;64599;-76
2023/03/22 01:21:18;;;;;;;55.50;39.80;;;;;;;9.20;61.40;100022.27;105951;1253;60286;-77
2023/03/22 01:23:45;;;;;;;54.90;38.10;;;;;;;9.18;61.39;100025.52;105649;1253;65476;-76
2023/03/22 01:26:12;;;;;;;53.20;37.90;;;;;;;9.18;61.44;100019.21;105932;1252;59625;-76
2023/03/22 01:28:40;;;;;;;51.70;37.70;;;;;;;9.20;61.43;100023.61;106015;1251;59810;-77
2023/03/22 01:31:07;;;;;;;51.80;36.80;;;;;;;9.21;61.43;100025.34;105932;1251;65083;-76
2023/03/22 01:33:34;;;;;;;47.90;35.70;;;;;;;9.21;61.39;100030.10;106002;1259;59950;-76
2023/03/22 01:36:03;;;;;;;52.60;36.40;;;;;;;9.21;61.41;100031.11;106051;1257;65717;-77
2023/03/22 01:38:32;;;;;;;48.40;35.80;;;;;;;9.22;61.45;100033.11;106237;1253;59825;-78
2023/03/22 01:41:01;;;;;;;46.60;35.40;;;;;;;9.23;61.42;100037.61;105979;1253;59606;-76
2023/03/22 01:43:30;;;;;;;48.50;35.90;;;;;;;9.23;61.39;100040.92;106030;1253;64848;-77
2023/03/22 01:45:59;;;;;;;48.50;35.00;;;;;;;9.23;61.37;100044.97;105919;1253;60146;-77
2023/03/22 01:48:36;;;;;;;49.00;35.40;;;;;;;9.23;61.34;100045.35;105959;1256;65816;-77
2023/03/22 01:51:07;;;;;;;48.10;35.60;;;;;;;9.24;61.38;100045.46;105667;1253;59677;-77
2023/03/22 01:53:47;;;;;;;48.50;35.40;;;;;;;9.24;61.31;100051.77;105984;1253;59543;-77
2023/03/22 01:56:16;;;;;;;47.40;34.80;;;;;;;9.23;61.29;100053.64;105898;1259;65882;-75
2023/03/22 01:58:43;;;;;;;47.60;34.90;;;;;;;9.22;61.31;100055.08;105730;1260;59690;-77
2023/03/22 02:01:11;;;;;;;47.40;34.50;;;;;;;9.23;61.54;100056.04;105831;1254;64766;-77
2023/03/22 02:04:14;;;;;;;46.20;35.20;;;;;;;9.25;61.56;100059.22;105725;1258;59594;-76
2023/03/22 02:06:41;;;;;;;50.20;34.00;;;;;;;9.27;61.73;100059.61;105959;1253;59642;-76
2023/03/22 02:09:13;;;;;;;44.80;32.50;;;;;;;9.30;61.79;100060.83;106394;1258;66096;-77
2023/03/22 02:11:45;;;;;;;47.00;33.70;;;;;;;9.32;61.87;100058.66;105718;1253;59657;-76
2023/03/22 02:14:44;;;;;;;47.90;33.40;;;;;;;9.36;61.93;100057.83;105684;1253;65381;-77
2023/03/22 02:18:06;;;;;;;47.00;33.00;;;;;;;9.39;61.89;100054.11;105604;1255;59682;-77
2023/03/22 02:20:54;;;;;;;44.30;32.70;;;;;;;9.39;61.82;100054.98;105773;1253;59641;-76
2023/03/22 02:23:53;;;;;;;47.00;34.70;;;;;;;9.37;61.76;100056.15;105889;1256;65818;-77
2023/03/22 02:26:58;;;;;;;42.10;32.70;;;;;;;9.36;61.61;100062.98;105915;1253;59570;-76
2023/03/22 02:29:48;;;;;;;43.60;32.70;;;;;;;9.30;61.63;100068.00;105907;1251;65337;-76
2023/03/22 02:32:33;;;;;;;44.40;33.40;;;;;;;9.25;61.73;100066.13;105894;1252;59596;-76
2023/03/22 02:35:20;;;;;;;44.30;33.50;;;;;;;9.19;61.88;100067.26;105926;1253;59690;-77
2023/03/22 02:38:13;;;;;;;45.10;32.80;;;;;;;9.16;61.82;100068.40;105856;1259;64491;-77
2023/03/22 02:40:55;;;;;;;43.40;33.10;;;;;;;9.12;61.86;100071.30;106036;1254;59699;-76
2023/03/22 02:43:37;;;;;;;43.30;32.80;;;;;;;9.09;62.01;100070.02;105909;1253;65565;-77
2023/03/22 02:46:06;;;;;;;45.80;33.60;;;;;;;9.07;62.17;100074.17;105955;1253;60409;-77
2023/03/22 02:48:39;;;;;;;47.10;34.50;;;;;;;9.08;62.29;100076.59;105962;1253;60544;-76
2023/03/22 02:51:10;;;;;;;46.90;34.40;;;;;;;9.09;62.39;100075.98;106025;1254;65416;-76
2023/03/22 02:53:43;;;;;;;44.70;33.70;;;;;;;9.10;62.52;100078.48;106003;1251;60451;-76
2023/03/22 02:56:13;;;;;;;43.90;34.30;;;;;;;9.14;62.65;100085.52;105672;1257;65542;-75
2023/03/22 02:58:50;;;;;;;44.30;34.00;;;;;;;9.18;62.78;100087.54;106281;1254;60410;-75
2023/03/22 03:01:29;;;;;;;43.60;34.50;;;;;;;9.20;62.86;100084.60;105948;1258;60405;-76
2023/03/22 03:03:59;;;;;;;43.70;35.00;;;;;;;9.22;63.01;100089.17;105885;1254;66712;-76
2023/03/22 03:06:29;;;;;;;48.80;36.50;;;;;;;9.25;63.13;100092.47;106030;1254;60630;-76
2023/03/22 03:08:57;;;;;;;44.20;35.40;;;;;;;9.28;63.17;100095.91;106098;1254;65402;-77
2023/03/22 03:11:25;;;;;;;45.60;35.80;;;;;;;9.32;63.17;100093.34;105861;1258;60429;-76
2023/03/22 03:13:52;;;;;;;41.70;34.30;;;;;;;9.36;63.30;100098.45;106009;1257;60505;-75
2023/03/22 03:16:20;;;;;;;45.80;35.90;;;;;;;9.38;63.31;100096.89;106115;1253;66824;-79
2023/03/22 03:19:06;;;;;;;43.90;35.20;;;;;;;9.40;63.28;100099.11;105879;1253;60395;-78
2023/03/22 03:21:52;;;;;;;44.40;36.20;;;;;;;9.44;63.48;100101.50;105811;1254;65198;-76
2023/03/22 03:24:32;;;;;;;60.10;35.90;;;;;;;9.47;63.48;100103.53;106084;1257;60597;-77
2023/03/22 03:27:24;;;;;;;43.30;34.90;;;;;;;9.49;63.32;100103.95;106007;1260;60522;-75
2023/03/22 03:30:00;;;;;;;46.20;36.30;;;;;;;9.50;63.31;100102.46;105950;1254;66697;-75
2023/03/22 03:32:34;;;;;;;44.30;35.90;;;;;;;9.51;63.38;100104.83;105976;1259;60540;-76
2023/03/22 03:35:06;;;;;;;44.80;36.80;;;;;;;9.51;63.35;100105.99;105928;1253;65597;-76
2023/03/22 03:37:41;;;;;;;45.00;36.80;;;;;;;9.52;63.45;100106.80;105877;1253;60372;-76
2023/03/22 03:40:20;;;;;;;44.50;35.10;;;;;;;9.53;63.41;100103.02;105865;1257;60843;-75
2023/03/22 03:42:49;;;;;;;45.20;35.70;;;;;;;9.55;63.42;100103.44;106075;1255;65707;-75
2023/03/22 03:45:16;;;;;;;44.00;35.50;;;;;;;9.54;63.34;100105.08;105946;1258;60412;-74
2023/03/22 03:47:45;;;;;;;45.30;36.80;;;;;;;9.55;63.35;100100.29;106103;1255;65603;-74
2023/03/22 03:50:14;;;;;;;44.80;36.00;;;;;;;9.56;63.34;100097.77;105940;1254;60538;-74
2023/03/22 03:52:44;;;;;;;48.60;35.80;;;;;;;9.56;63.34;100093.54;106147;1251;60451;-76
2023/03/22 03:55:11;;;;;;;47.00;35.40;;;;;;;9.55;63.30;100089.70;106252;1252;66671;-76
2023/03/22 03:57:39;;;;;;;45.00;35.20;;;;;;;9.54;63.18;100090.48;105831;1259;60476;-75
2023/03/22 04:00:08;;;;;;;44.00;34.90;;;;;;;9.51;63.14;100090.23;106031;1251;65644;-77
2023/03/22 04:02:45;;;;;;;43.80;33.40;;;;;;;9.46;63.09;100097.30;106054;1254;60335;-75
2023/03/22 04:05:25;;;;;;;40.80;33.40;;;;;;;9.39;63.03;100103.30;106120;1251;61517;-75
2023/03/22 04:07:52;;;;;;;42.50;33.70;;;;;;;9.31;62.98;100106.70;105834;1251;66558;-74
2023/03/22 04:10:19;;;;;;;41.70;34.00;;;;;;;9.25;62.97;100107.95;106243;1252;61096;-75
2023/03/22 04:12:48;;;;;;;43.60;34.50;;;;;;;9.21;63.05;100115.12;105878;1256;65630;-75
2023/03/22 04:15:17;;;;;;;47.00;35.00;;;;;;;9.17;63.15;100121.86;106138;1253;60316;-75
2023/03/22 04:17:47;;;;;;;48.90;37.70;;;;;;;9.17;63.30;100125.23;106114;1251;60421;-76
2023/03/22 04:20:15;;;;;;;50.40;39.70;;;;;;;9.17;63.34;100123.30;105939;1258;66534;-76
2023/03/22 04:22:45;;;;;;;45.80;38.20;;;;;;;9.17;63.38;100123.29;106097;1256;60653;-76
2023/03/22 04:25:18;;;;;;;56.40;45.10;;;;;;;9.17;63.42;100127.29;105857;1257;65439;-75
2023/03/22 04:27:54;;;;;;;51.90;43.60;;;;;;;9.16;63.41;100124.07;105654;1253;60964;-75
2023/03/22 04:30:23;;;;;;;54.60;43.20;;;;;;;9.15;63.44;100129.27;105983;1258;60419;-76
2023/03/22 04:33:10;;;;;;;52.10;39.60;;;;;;;9.14;63.52;100134.20;105849;1258;66659;-77
2023/03/22 04:35:58;;;;;;;50.10;39.70;;;;;;;9.14;63.60;100135.83;105962;1251;60533;-76
2023/03/22 04:38:32;;;;;;;48.40;37.50;;;;;;;9.13;63.70;100138.66;106080;1254;65530;-76
2023/03/22 04:41:00;;;;;;;45.00;35.20;;;;;;;9.13;63.74;100144.83;105839;1255;60384;-75
2023/03/22 04:43:49;;;;;;;46.90;36.90;;;;;;;9.13;63.67;100150.96;105998;1251;60450;-75
2023/03/22 04:46:20;;;;;;;48.50;37.30;;;;;;;9.13;63.69;100155.18;106250;1256;66631;-76
2023/03/22 04:48:52;;;;;;;45.20;35.10;;;;;;;9.13;63.61;100160.17;106131;1256;60405;-76
2023/03/22 04:51:19;;;;;;;46.10;36.40;;;;;;;9.08;63.73;100157.34;105923;1253;64333;-76
2023/03/22 04:53:58;;;;;;;51.30;36.50;;;;;;;9.05;63.82;100159.14;105848;1257;60429;-76
2023/03/22 04:56:25;;;;;;;48.00;37.20;;;;;;;9.05;63.92;100162.64;105832;1254;60343;-75
2023/03/22 04:58:52;;;;;;;47.90;37.30;;;;;;;9.06;64.02;100162.58;105910;1259;66550;-77
2023/03/22 05:01:22;;;;;;;49.00;38.30;;;;;;;9.07;63.90;100160.96;106180;1253;60447;-77
2023/03/22 05:03:55;;;;;;;45.80;37.70;;;;;;;9.08;64.12;100165.06;105890;1257;64443;-76
2023/03/22 05:06:22;;;;;;;48.90;38.00;;;;;;;9.12;64.36;100169.51;105654;1269;60414;-77
2023/03/22 05:08:59;;;;;;;48.30;38.70;;;;;;;9.18;64.61;100172.38;105902;1256;60536;-77
2023/03/22 05:11:27;;;;;;;47.80;37.80;;;;;;;9.26;64.68;100170.59;105969;1260;66491;-76
2023/03/22 05:14:11;;;;;;;49.50;38.20;;;;;;;9.33;64.76;100175.59;105894;1260;60474;-77
2023/03/22 05:16:40;;;;;;;44.60;36.30;;;;;;;9.41;64.81;100175.02;106138;1257;65208;-77
2023/03/22 05:19:12;;;;;;;45.10;35.90;;;;;;;9.47;64.87;100175.94;105932;1258;60364;-77
2023/03/22 05:21:42;;;;;;;;;;;;;;;9.53;65.04;100173.02;105921;1260;60331;-76
2023/03/22 05:24:10;;;;;;;42.90;34.60;;;;;;;9.60;65.12;100175.96;106113;1251;66816;-77
2023/03/22 05:26:41;;;;;;;44.10;34.80;;;;;;;9.66;65.14;100173.41;105612;1259;60417;-76
2023/03/22 05:29:09;;;;;;;43.10;34.90;;;;;;;9.73;65.16;100176.20;105719;1254;64706;-76
2023/03/22 05:31:59;;;;;;;40.50;33.60;;;;;;;9.81;65.10;100180.34;105918;1263;60507;-77
2023/03/22 05:34:34;;;;;;;42.50;33.80;;;;;;;9.87;65.05;100187.02;106001;1254;60440;-76
2023/03/22 05:37:05;;;;;;;40.90;34.30;;;;;;;9.94;65.05;100192.45;105869;1254;66784;-76
2023/03/22 05:39:54;;;;;;;42.60;33.60;;;;;;;10.01;64.92;100191.70;105838;1256;60368;-75
2023/03/22 05:42:25;;;;;;;40.40;33.30;;;;;;;10.06;64.80;100192.54;106066;1254;65574;-76
2023/03/22 05:44:52;;;;;;;41.90;32.80;;;;;;;10.10;64.80;100195.77;105882;1253;60426;-75
2023/03/22 05:47:19;;;;;;;41.00;33.30;;;;;;;10.13;64.74;100200.07;106005;1256;60415;-76
2023/03/22 05:50:00;;;;;;;42.90;33.60;;;;;;;10.17;64.73;100204.67;105795;1263;66570;-77
2023/03/22 05:52:27;;;;;;;39.80;33.10;;;;;;;10.20;64.69;100204.23;105898;1256;60457;-76
2023/03/22 05:55:12;;;;;;;43.00;33.80;;;;;;;10.27;64.56;100198.99;105863;1257;65539;-77
2023/03/22 05:57:43;;;;;;;42.30;33.50;;;;;;;10.33;64.47;100201.95;105945;1256;60567;-77
2023/03/22 06:00:15;;;;;;;44.90;33.20;;;;;;;10.38;64.36;100201.61;106087;1253;60445;-76
2023/03/22 06:02:55;;;;;;;42.50;33.50;;;;;;;10.42;64.31;100203.02;105731;1256;65803;-76
2023/03/22 06:05:23;;;;;;;38.90;32.80;;;;;;;10.47;64.25;100205.58;106098;1256;60443;-77
2023/03/22 06:07:50;;;;;;;40.90;32.70;;;;;;;10.53;64.09;100206.84;106029;1256;65371;-76
2023/03/22 06:10:20;;;;;;;38.30;31.90;;;;;;;10.60;63.95;100206.33;105769;1254;60496;-77
2023/03/22 06:12:54;;;;;;;39.30;31.40;;;;;;;10.67;63.91;100209.61;105880;1251;60444;-78
2023/03/22 06:15:26;;;;;;;37.00;31.40;;;;;;;10.74;63.76;100210.45;105998;1255;66570;-75
2023/03/22 06:18:03;;;;;;;35.90;30.10;;;;;;;10.79;63.56;100211.73;105717;1251;60530;-77
2023/03/22 06:20:35;;;;;;;39.40;30.40;;;;;;;10.86;63.41;100208.34;106137;1254;65282;-76
2023/03/22 06:23:08;;;;;;;35.80;29.80;;;;;;;10.97;63.13;100208.16;106078;1251;60895;-76
2023/03/22 06:25:35;;;;;;;37.00;29.70;;;;;;;11.04;62.97;100210.38;105983;1258;60399;-76
2023/03/22 06:28:02;;;;;;;34.60;28.80;;;;;;;11.11;62.85;100211.57;105942;1256;65374;-77
2023/03/22 06:30:30;;;;;;;33.90;27.70;;;;;;;11.19;62.64;100214.45;105785;1259;60484;-75
2023/03/22 06:33:20;;;;;;;33.50;26.80;;;;;;;11.26;62.34;100216.66;105843;1257;65615;-76
2023/03/22 06:35:52;;;;;;;35.30;26.70;;;;;;;11.32;62.23;100216.81;105963;1252;60380;-76
2023/03/22 06:38:27;;;;;;;38.80;27.50;;;;;;;11.40;62.15;100218.11;106037;1251;60466;-76
2023/03/22 06:40:55;;;;;;;32.90;27.80;;;;;;;11.48;61.86;100220.89;105970;1251;66828;-77
2023/03/22 06:43:23;;;;;;;34.50;27.30;;;;;;;11.57;61.77;100221.20;105685;1261;60231;-77
2023/03/22 06:45:51;;;;;;;31.80;26.50;;;;;;;11.64;61.42;100227.98;106011;1255;64438;-72
2023/03/22 06:48:22;;;;;;;33.60;26.60;;;;;;;11.71;61.28;100233.91;105982;1256;60430;-79
2023/03/22 06:50:58;;;;;;;34.10;26.20;;;;;;;11.77;60.98;100238.54;105746;1259;60538;-75
2023/03/22 06:53:31;;;;;;;32.40;26.00;;;;;;;11.82;60.69;100245.16;105763;1254;66628;-75
2023/03/22 06:55:58;;;;;;;34.90;26.20;;;;;;;11.87;60.56;100242.83;105958;1257;67995;-69
2023/03/22 06:58:25;;;;;;;31.10;25.20;;;;;;;11.92;60.45;100248.05;106103;1257;65529;-67
2023/03/22 07:00:55;;;;;;;32.70;26.50;;;;;;;11.96;60.25;100247.14;106239;1251;60509;-68
2023/03/22 07:03:25;;;;;;;34.10;26.60;;;;;;;12.00;60.12;100250.48;106338;1254;60533;-69
2023/03/22 07:06:02;;;;;;;31.80;26.40;;;;;;;12.05;59.90;100256.25;106359;1251;66782;-71
2023/03/22 07:08:34;;;;;;;37.50;26.70;;;;;;;12.09;59.87;100257.34;105965;1255;60448;-72
2023/03/22 07:11:06;;;;;;;34.60;26.30;;;;;;;12.11;59.62;100256.39;106049;1255;65333;-67
2023/03/22 07:13:35;;;;;;;35.30;26.30;;;;;;;12.16;59.44;100257.77;106352;1256;60408;-71
2023/03/22 07:16:10;;;;;;;31.80;26.70;;;;;;;12.21;59.38;100261.66;106327;1252;60389;-69
2023/03/22 07:19:01;;;;;;;25.20;19.40;;;;;;;12.30;59.46;100264.75;105604;1257;66779;-68
2023/03/22 07:21:29;;;;;;;36.90;27.10;;;;;;;12.40;59.28;100266.73;105777;1260;60912;-68
2023/03/22 07:23:59;;;;;;;33.10;25.70;;;;;;;12.49;59.21;100267.64;105977;1254;65421;-70
2023/03/22 07:26:29;;;;;;;33.00;27.30;;;;;;;12.56;59.18;100266.85;106054;1251;60588;-68
2023/03/22 07:29:03;;;;;;;37.10;26.70;;;;;;;12.66;59.11;100266.69;105931;1251;60881;-68
2023/03/22 07:31:35;;;;;;;33.70;25.70;;;;;;;12.75;58.95;100265.84;105274;1261;64868;-70
2023/03/22 07:34:05;;;;;;;31.60;25.40;;;;;;;12.83;58.70;100261.40;106072;1255;60704;-69
2023/03/22 07:36:42;;;;;;;30.90;25.60;;;;;;;12.92;58.44;100259.93;105998;1251;65715;-72
2023/03/22 07:39:15;;;;;;;36.40;25.60;;;;;;;12.99;58.14;100258.95;105902;1255;60507;-70
2023/03/22 07:41:46;;;;;;;32.40;26.40;;;;;;;13.04;57.65;100255.08;106121;1254;60510;-67
2023/03/22 07:44:24;;;;;;;31.20;25.70;;;;;;;13.10;57.47;100254.92;105647;1256;66595;-69
2023/03/22 07:47:05;;;;;;;32.90;25.00;;;;;;;13.18;57.20;100254.94;106502;1251;60436;-67
2023/03/22 07:50:00;;;;;;;29.30;23.80;;;;;;;13.27;56.99;100253.92;106169;1257;66404;-67
2023/03/22 07:52:37;;;;;;;29.10;24.50;;;;;;;13.36;56.69;100251.85;106345;1256;60757;-70
2023/03/22 07:55:17;;;;;;;;;;;;;;;13.44;56.26;100256.87;106900;1253;60322;-69
2023/03/22 07:57:55;;;;;;;30.80;24.10;;;;;;;13.55;56.04;100256.95;106438;1254;64080;-67
2023/03/22 08:00:25;;;;;;;34.10;24.40;;;;;;;13.66;55.94;100255.40;106240;1257;60441;-69
2023/03/22 08:03:22;;;;;;;35.60;24.20;;;;;;;13.76;55.59;100257.61;106453;1256;65895;-66
2023/03/22 08:06:08;;;;;;;33.40;24.20;;;;;;;13.85;55.19;100256.27;106117;1257;60536;-66
2023/03/22 08:08:39;;;;;;;32.40;23.80;;;;;;;13.93;54.77;100256.71;105919;1252;60511;-67
2023/03/22 08:11:11;;;;;;;34.70;24.90;;;;;;;14.01;54.45;100259.31;106029;1257;66766;-69
2023/03/22 08:13:40;;;;;;;32.20;23.90;;;;;;;14.10;54.40;100257.17;106049;1255;60462;-68
2023/03/22 08:16:15;;;;;;;28.30;24.00;;;;;;;14.22;54.17;100258.53;105751;1254;63663;-68
2023/03/22 08:18:45;;;;;;;30.00;24.30;;;;;;;14.35;54.02;100257.40;105981;1254;60519;-70
2023/03/22 08:21:16;;;;;;;29.40;24.20;;;;;;;14.49;53.91;100255.35;106486;1252;60698;-74
2023/03/22 08:23:46;;;;;;;34.50;24.00;;;;;;;14.65;53.46;100254.35;106153;1253;65096;-73
2023/03/22 08:26:48;;;;;;;29.10;24.20;;;;;;;14.83;53.09;100250.05;106835;1254;60510;-69
2023/03/22 08:29:34;;;;;;;29.80;25.20;;;;;;;15.02;52.57;100252.48;105931;1251;63827;-70
2023/03/22 08:32:04;;;;;;;29.80;24.10;;;;;;;15.17;52.36;100254.23;106323;1254;65209;-72
2023/03/22 08:34:38;;;;;;;27.80;23.50;;;;;;;15.32;51.99;100251.51;106366;1251;60489;-71
2023/03/22 08:37:07;;;;;;;31.00;24.60;;;;;;;15.48;51.81;100250.93;106600;1251;66307;-70
2023/03/22 08:39:37;;;;;;;27.20;22.80;;;;;;;15.65;51.58;100254.50;106481;1254;60481;-68
2023/03/22 08:42:32;;;;;;;28.70;22.60;;;;;;;15.81;51.10;100256.09;106858;1254;65990;-72
2023/03/22 08:45:09;;;;;;;29.40;23.40;;;;;;;15.91;50.89;100255.43;106350;1254;60457;-69
2023/03/22 08:47:49;;;;;;;30.30;23.60;;;;;;;16.01;50.81;100254.95;106281;1258;60341;-71
2023/03/22 08:50:19;;;;;;;27.30;23.50;;;;;;;16.10;50.38;100253.95;106393;1254;66782;-70
2023/03/22 08:52:59;;;;;;;27.10;22.90;;;;;;;16.22;50.28;100253.77;106452;1251;60818;-71
2023/03/22 08:55:38;;;;;;;34.50;24.40;;;;;;;16.38;50.07;100251.55;106173;1251;64036;-71
2023/03/22 08:58:19;;;;;;;27.80;22.80;;;;;;;16.53;49.74;100252.93;106150;1251;60526;-72
2023/03/22 09:01:19;;;;;;;26.70;22.40;;;;;;;16.67;49.49;100246.83;105667;1255;60402;-73
2023/03/22 09:03:55;;;;;;;27.10;23.20;;;;;;;16.81;49.46;100247.17;106126;1254;65759;-73
2023/03/22 09:06:27;;;;;;;28.60;23.20;;;;;;;16.94;49.03;100248.02;106211;1254;60945;-71
2023/03/22 09:08:58;;;;;;;27.90;22.90;;;;;;;17.02;48.56;100246.52;106038;1254;66053;-68
2023/03/22 09:11:28;;;;;;;27.40;22.90;;;;;;;17.08;48.15;100243.52;106230;1259;60382;-69
2023/03/22 09:13:56;;;;;;;24.10;21.50;;;;;;;17.10;47.88;100244.03;106217;1253;60354;-69
2023/03/22 09:16:28;;;;;;;26.00;22.30;;;;;;;17.09;47.65;100241.40;106569;1251;64951;-69
2023/03/22 09:19:01;;;;;;;26.90;22.60;;;;;;;17.12;47.64;100240.55;106375;1251;60573;-69
2023/03/22 09:21:31;;;;;;;29.10;23.00;;;;;;;17.18;47.36;100241.72;106323;1256;65866;-71
2023/03/22 09:24:16;;;;;;;26.40;22.30;;;;;;;17.26;47.55;100238.30;106190;1257;60508;-70
2023/03/22 09:26:50;;;;;;;29.70;22.70;;;;;;;17.33;47.16;100235.64;106144;1256;60420;-71
2023/03/22 09:29:21;;;;;;;28.00;22.00;;;;;;;17.37;47.20;100236.02;106351;1251;67074;-70
2023/03/22 09:31:52;;;;;;;25.10;21.80;;;;;;;17.43;47.02;100237.35;106587;1251;60436;-68
2023/03/22 09:34:22;;;;;;;27.00;22.20;;;;;;;17.48;46.95;100239.32;106307;1257;65659;-70
2023/03/22 09:36:51;;;;;;;31.30;23.10;;;;;;;17.53;46.87;100244.20;106095;1254;60511;-67
2023/03/22 09:39:21;;;;;;;30.10;22.30;;;;;;;17.60;46.67;100245.10;106457;1251;60434;-67
2023/03/22 09:41:53;;;;;;;26.80;22.20;;;;;;;17.64;46.60;100246.89;106319;1255;66783;-68
2023/03/22 09:44:35;;;;;;;27.10;22.20;;;;;;;17.71;46.77;100249.30;106052;1253;60474;-69
2023/03/22 09:47:04;;;;;;;26.50;22.90;;;;;;;17.78;46.80;100249.30;106154;1254;64422;-69
2023/03/22 09:49:39;;;;;;;25.40;21.90;;;;;;;17.83;46.75;100250.34;105962;1251;60469;-69
2023/03/22 09:52:19;;;;;;;28.30;22.90;;;;;;;17.86;46.38;100251.11;105925;1256;60345;-69
2023/03/22 09:54:46;;;;;;;24.50;21.80;;;;;;;17.89;46.33;100252.70;106349;1251;65705;-68
2023/03/22 09:57:23;;;;;;;23.30;20.40;;;;;;;17.94;46.17;100251.11;106183;1257;60415;-68
2023/03/22 10:00:13;;;;;;;27.10;21.70;;;;;;;17.97;45.91;100248.91;105986;1254;65566;-69
2023/03/22 10:02:58;;;;;;;29.00;22.10;;;;;;;18.01;45.59;100248.45;105863;1259;60420;-70
2023/03/22 10:05:34;;;;;;;28.80;24.90;;;;;;;18.09;45.77;100247.95;106314;1256;59195;-70
2023/03/22 10:08:23;;;;;;;30.10;21.80;;;;;;;18.25;45.55;100245.48;105816;1259;66863;-69
2023/03/22 10:10:51;;;;;;;25.00;19.70;;;;;;;18.50;45.48;100246.08;106022;1254;60296;-68
2023/03/22 10:13:45;;;;;;;25.00;19.50;;;;;;;18.75;45.26;100240.77;106039;1253;65492;-67
2023/03/22 10:16:18;;;;;;;21.50;19.10;;;;;;;19.02;44.73;100232.64;105993;1254;60780;-68
2023/03/22 10:18:48;;;;;;;19.50;17.40;;;;;;;19.25;44.21;100228.42;105760;1253;59523;-67
2023/03/22 10:29:50;;;;;;;19.60;15.90;;;;;;;20.17;41.42;100222.90;107062;1251;63317;-67
2023/03/22 10:32:50;;;;;;;18.60;14.40;;;;;;;20.34;40.86;100220.80;106934;1258;60414;-68
2023/03/22 10:35:24;;;;;;;16.10;14.40;;;;;;;20.55;40.40;100220.68;106861;1253;60529;-69
2023/03/22 10:37:51;;;;;;;15.70;13.40;;;;;;;20.74;40.03;100219.60;107022;1253;66368;-67
2023/03/22 10:40:20;;;;;;;17.70;14.60;;;;;;;20.97;39.57;100219.53;107016;1253;60581;-68
2023/03/22 10:42:52;;;;;;;21.90;16.90;;;;;;;21.17;38.71;100221.55;106816;1259;170334;-68
2023/03/22 10:45:19;;;;;;;20.60;17.20;;;;;;;21.32;38.55;100219.47;106913;1253;60405;-70
2023/03/22 10:48:04;;;;;;;17.90;14.40;;;;;;;21.46;38.56;100214.95;106962;1253;60423;-67
2023/03/22 10:50:32;;;;;;;;;;;;;;;21.65;38.44;100217.60;107055;1252;66694;-66
2023/03/22 10:53:22;;;;;;;11.80;8.90;;;;;;;21.85;38.04;100216.60;106945;1253;58844;-71
2023/03/22 10:55:49;;;;;;;17.90;9.80;;;;;;;21.97;36.65;100214.24;106991;1254;64618;-66
2023/03/22 10:58:20;;;;;;;20.60;11.50;;;;;;;22.07;36.52;100212.24;106947;1255;60442;-66
2023/03/22 11:00:49;;;;;;;18.10;10.40;;;;;;;22.15;36.40;100215.02;107038;1253;59004;-69
2023/03/22 11:03:35;;;;;;;21.10;11.40;;;;;;;22.20;36.39;100217.61;106947;1253;66153;-69
2023/03/22 11:06:16;;;;;;;17.50;10.60;;;;;;;22.29;35.73;100214.92;106889;1253;59847;-69
2023/03/22 11:08:48;;;;;;;15.10;12.40;;;;;;;22.35;35.50;100217.58;107083;1251;65358;-70
2023/03/22 11:11:37;;;;;;;18.20;14.10;;;;;;;22.41;35.37;100212.43;106980;1251;60378;-69
2023/03/22 11:14:07;;;;;;;18.50;15.90;;;;;;;22.45;35.21;100209.98;107140;1251;60559;-70
2023/03/22 11:17:05;;;;;;;20.50;14.90;;;;;;;22.51;35.30;100210.95;106969;1251;66991;-70
2023/03/22 11:19:33;;;;;;;16.10;14.40;;;;;;;22.64;35.12;100210.90;107011;1251;60423;-71
2023/03/22 11:22:04;;;;;;;17.50;15.20;;;;;;;22.71;34.95;100204.83;107037;1251;64391;-69
2023/03/22 11:24:31;;;;;;;15.90;14.10;;;;;;;22.81;34.93;100199.55;107012;1251;60453;-70
2023/03/22 11:27:04;;;;;;;18.20;15.10;;;;;;;22.96;34.82;100199.98;106838;1251;60415;-73
2023/03/22 11:29:48;;;;;;;17.40;15.20;;;;;;;23.09;34.49;100198.01;106993;1251;67305;-69
2023/03/22 11:32:27;;;;;;;17.30;15.40;;;;;;;23.17;34.19;100197.34;107160;1250;60418;-68
2023/03/22 11:35:19;;;;;;;18.30;16.10;;;;;;;23.23;34.33;100196.67;106924;1253;65854;-70
2023/03/22 11:37:50;;;;;;;18.90;16.60;;;;;;;23.31;34.07;100195.54;106930;1251;60453;-73
2023/03/22 11:40:21;;;;;;;18.90;15.50;;;;;;;23.32;34.08;100192.48;106793;1251;60511;-68
2023/03/22 11:42:51;;;;;;;18.80;16.10;;;;;;;23.32;33.64;100187.45;106970;1251;66431;-67
2023/03/22 11:45:26;;;;;;;19.00;15.40;;;;;;;23.16;33.61;100192.15;106961;1256;60446;-68
2023/03/22 11:47:53;;;;;;;;;;;;;;;22.84;33.84;100192.13;107028;1253;65556;-67